Time;durP1;ratioP1;P1;durP2;ratioP2;P2;SDS_P1;SDS_P2;PMS_P1;PMS_P2;Temp;Humidity;BMP_temperature;BMP_pressure;BME280_temperature;BME280_humidity;BME280_pressure;Samples;Min_cycle;Max_cycle;Signal;HPM_P1;HPM_P2
2023/07/09 00:02:14;;;;;;;0.00;0.00;;;;;;;21.12;nan;101075.22;4953415;28;20704;-75
2023/07/09 00:04:39;;;;;;;0.00;0.00;;;;;;;21.14;nan;101079.25;4952935;28;20339;-74
2023/07/09 00:07:05;;;;;;;0.00;0.00;;;;;;;20.94;nan;101063.75;4952101;28;20273;-75
2023/07/09 00:09:31;;;;;;;0.00;0.00;;;;;;;20.96;nan;101078.09;4952291;28;20273;-75
2023/07/09 00:11:57;;;;;;;0.00;0.00;;;;;;;20.96;nan;101073.34;4953373;28;20646;-75
2023/07/09 00:14:23;;;;;;;0.00;0.00;;;;;;;21.00;nan;101071.44;4953069;28;20208;-75
2023/07/09 00:16:48;;;;;;;0.00;0.00;;;;;;;21.00;nan;101076.19;4953265;28;20185;-76
2023/07/09 00:19:18;;;;;;;0.00;0.00;;;;;;;20.97;nan;101074.94;4952318;28;20247;-75
2023/07/09 00:21:45;;;;;;;0.00;0.00;;;;;;;20.92;nan;101080.00;4953553;28;20192;-76
2023/07/09 00:24:13;;;;;;;0.00;0.00;;;;;;;20.94;nan;101081.22;4952952;28;20642;-76
2023/07/09 00:26:43;;;;;;;0.00;0.00;;;;;;;20.95;nan;101084.81;4953140;28;20188;-76
2023/07/09 00:29:10;;;;;;;0.00;0.00;;;;;;;20.92;nan;101080.78;4952491;28;20220;-74
2023/07/09 00:31:40;;;;;;;0.00;0.00;;;;;;;20.81;nan;101085.31;4952870;28;20308;-75
2023/07/09 00:34:11;;;;;;;0.00;0.00;;;;;;;20.72;nan;101080.00;4952815;28;20224;-75
2023/07/09 00:36:37;;;;;;;0.00;0.00;;;;;;;20.55;nan;101088.75;4951737;29;20190;-75
2023/07/09 00:39:05;;;;;;;0.00;0.00;;;;;;;20.46;nan;101086.19;4952160;28;20196;-75
2023/07/09 00:41:34;;;;;;;0.00;0.00;;;;;;;20.51;nan;101096.19;4952839;28;20188;-75
2023/07/09 00:44:18;;;;;;;0.00;0.00;;;;;;;20.50;nan;101089.81;4951592;29;20211;-75
2023/07/09 00:46:49;;;;;;;0.00;0.00;;;;;;;20.46;nan;101082.59;4952843;28;20178;-75
2023/07/09 00:49:34;;;;;;;0.00;0.00;;;;;;;20.42;nan;101074.19;4952234;28;20192;-75
2023/07/09 00:52:03;;;;;;;0.00;0.00;;;;;;;20.40;nan;101082.06;4952653;28;20198;-76
2023/07/09 00:54:42;;;;;;;0.00;0.00;;;;;;;20.35;nan;101073.19;4952667;28;20217;-76
2023/07/09 00:57:12;;;;;;;0.00;0.00;;;;;;;20.30;nan;101074.28;4952846;28;20737;-75
2023/07/09 00:59:40;;;;;;;0.00;0.00;;;;;;;20.32;nan;101065.59;4952436;28;20536;-76
2023/07/09 01:02:07;;;;;;;0.00;0.00;;;;;;;20.31;nan;101069.53;4952804;28;20664;-75
2023/07/09 01:04:34;;;;;;;0.00;0.00;;;;;;;20.21;nan;101063.38;4951279;29;20772;-75
2023/07/09 01:07:00;;;;;;;0.00;0.00;;;;;;;20.15;nan;101066.81;4952676;28;20188;-75
2023/07/09 01:09:26;;;;;;;0.00;0.00;;;;;;;20.05;nan;101061.81;4950757;29;20218;-75
2023/07/09 01:11:56;;;;;;;0.00;0.00;;;;;;;20.02;nan;101057.78;4952722;28;20191;-75
2023/07/09 01:14:25;;;;;;;0.00;0.00;;;;;;;20.07;nan;101056.69;4952483;28;20199;-75
2023/07/09 01:16:57;;;;;;;0.00;0.00;;;;;;;19.95;nan;101048.47;4951381;28;20182;-75
2023/07/09 01:19:28;;;;;;;0.00;0.00;;;;;;;19.88;nan;101049.13;4952015;28;20188;-75
2023/07/09 01:22:01;;;;;;;0.00;0.00;;;;;;;19.99;nan;101055.72;4954270;29;20279;-75
2023/07/09 01:25:00;;;;;;;0.00;0.00;;;;;;;19.91;nan;101051.97;4955992;28;20218;-75
2023/07/09 01:27:29;;;;;;;0.00;0.00;;;;;;;19.96;nan;101053.66;4956304;28;20176;-75
2023/07/09 01:29:57;;;;;;;0.00;0.00;;;;;;;20.00;nan;101062.09;4955507;28;20260;-75
2023/07/09 01:32:24;;;;;;;3.20;3.00;;;;;;;19.92;nan;101053.59;4954597;29;20178;-75
2023/07/09 01:34:54;;;;;;;1.33;1.33;;;;;;;19.90;nan;101057.88;4956127;28;20191;-75
2023/07/09 01:37:23;;;;;;;0.00;0.00;;;;;;;19.72;nan;101040.00;4956305;28;20186;-74
2023/07/09 01:39:50;;;;;;;0.33;0.33;;;;;;;19.44;nan;101024.25;4955354;28;20203;-75
2023/07/09 01:42:17;;;;;;;0.70;0.70;;;;;;;19.13;nan;101025.03;4955980;28;20187;-75
2023/07/09 01:44:43;;;;;;;0.13;0.13;;;;;;;18.80;nan;101025.28;4955587;29;20209;-75
2023/07/09 01:47:08;;;;;;;0.10;0.10;;;;;;;18.73;nan;101030.63;4956347;28;20182;-77
2023/07/09 01:49:34;;;;;;;0.00;0.00;;;;;;;18.76;nan;101029.94;4955341;28;20269;-77
2023/07/09 01:52:01;;;;;;;0.00;0.00;;;;;;;18.78;nan;101033.13;4955819;28;20194;-76
2023/07/09 01:54:30;;;;;;;0.00;0.00;;;;;;;18.80;nan;101043.84;4955648;28;20253;-77
2023/07/09 01:57:14;;;;;;;0.50;0.50;;;;;;;18.55;nan;101019.03;4951297;29;20567;-77
2023/07/09 01:59:41;;;;;;;1.50;1.40;;;;;;;18.11;nan;101009.81;4947228;29;20313;-76
2023/07/09 02:02:09;;;;;;;0.87;0.87;;;;;;;17.80;nan;101013.19;4955593;28;20593;-76
2023/07/09 02:04:34;;;;;;;0.00;0.00;;;;;;;17.74;nan;101014.53;4955326;28;20611;-76
2023/07/09 02:06:59;;;;;;;0.00;0.00;;;;;;;17.79;nan;101017.91;4951143;29;20274;-77
2023/07/09 02:09:25;;;;;;;0.00;0.00;;;;;;;18.01;nan;101032.38;4952991;29;20202;-76
2023/07/09 02:11:50;;;;;;;0.17;0.17;;;;;;;17.94;nan;101021.94;4955331;28;20178;-76
2023/07/09 02:14:16;;;;;;;0.00;0.00;;;;;;;18.00;nan;101042.66;4955266;28;20217;-77
2023/07/09 02:16:41;;;;;;;0.17;0.17;;;;;;;18.15;nan;101043.91;4953984;29;20676;-76
2023/07/09 02:19:07;;;;;;;0.00;0.00;;;;;;;18.26;nan;101045.03;4953580;28;20190;-77
2023/07/09 02:21:32;;;;;;;0.00;0.00;;;;;;;18.26;nan;101044.22;4955193;28;20705;-77
2023/07/09 02:23:57;;;;;;;0.00;0.00;;;;;;;18.33;nan;101052.75;4955207;28;20203;-77
2023/07/09 02:26:23;;;;;;;0.00;0.00;;;;;;;18.29;nan;101044.34;4955065;28;20686;-76
2023/07/09 02:28:49;;;;;;;0.00;0.00;;;;;;;18.33;nan;101041.66;4954789;29;20186;-77
2023/07/09 02:31:15;;;;;;;0.00;0.00;;;;;;;18.39;nan;101049.41;4954211;28;20198;-76
2023/07/09 02:33:41;;;;;;;0.00;0.00;;;;;;;18.04;nan;101032.50;4953699;29;20206;-77
2023/07/09 02:36:06;;;;;;;0.00;0.00;;;;;;;18.21;nan;101059.09;4955014;28;20212;-77
2023/07/09 02:38:31;;;;;;;0.00;0.00;;;;;;;18.23;nan;101061.53;4954930;28;20206;-75
2023/07/09 02:40:56;;;;;;;0.00;0.00;;;;;;;18.18;nan;101054.25;4954440;28;20198;-77
2023/07/09 02:43:22;;;;;;;0.20;0.20;;;;;;;18.14;nan;101050.59;4953295;29;20210;-77
2023/07/09 02:45:47;;;;;;;2.87;2.77;;;;;;;18.01;nan;101044.25;4954804;28;20649;-76
2023/07/09 02:48:12;;;;;;;0.00;0.00;;;;;;;18.00;nan;101047.38;4954829;28;20261;-77
2023/07/09 02:50:37;;;;;;;0.00;0.00;;;;;;;18.04;nan;101056.59;4954206;28;20194;-77
2023/07/09 02:53:03;;;;;;;0.20;0.20;;;;;;;18.07;nan;101061.41;4954660;28;20712;-76
2023/07/09 02:55:29;;;;;;;0.00;0.00;;;;;;;18.22;nan;101071.75;4954533;28;20186;-77
2023/07/09 02:57:55;;;;;;;0.00;0.00;;;;;;;18.23;nan;101059.56;4954558;28;20682;-77
2023/07/09 03:00:20;;;;;;;0.00;0.00;;;;;;;18.20;nan;101064.97;4953760;28;20206;-77
2023/07/09 03:02:45;;;;;;;0.00;0.00;;;;;;;18.21;nan;101072.91;4954585;28;20711;-77
2023/07/09 03:05:10;;;;;;;0.20;0.20;;;;;;;18.10;nan;101061.53;4953145;28;20218;-76
2023/07/09 03:07:36;;;;;;;0.00;0.00;;;;;;;18.06;nan;101055.06;4954804;28;20211;-77
2023/07/09 03:10:01;;;;;;;0.00;0.00;;;;;;;18.06;nan;101060.59;4953930;28;20193;-77
2023/07/09 03:12:26;;;;;;;0.00;0.00;;;;;;;18.08;nan;101060.25;4954130;28;20218;-77
2023/07/09 03:14:51;;;;;;;0.00;0.00;;;;;;;18.11;nan;101067.88;4952910;28;20207;-76
2023/07/09 03:17:17;;;;;;;0.00;0.00;;;;;;;18.12;nan;101073.06;4953868;28;20285;-76
2023/07/09 03:19:42;;;;;;;0.67;0.67;;;;;;;18.14;nan;101075.47;4953759;28;20186;-77
2023/07/09 03:22:08;;;;;;;0.00;0.00;;;;;;;18.12;nan;101069.50;4955394;28;20639;-76
2023/07/09 03:24:33;;;;;;;0.40;0.40;;;;;;;18.05;nan;101077.53;4954016;28;20218;-77
2023/07/09 03:26:59;;;;;;;0.00;0.00;;;;;;;18.12;nan;101080.56;4954144;28;20265;-77
2023/07/09 03:29:24;;;;;;;0.00;0.00;;;;;;;18.13;nan;101079.41;4950157;29;20191;-77
2023/07/09 03:31:49;;;;;;;0.00;0.00;;;;;;;18.18;nan;101084.69;4954205;28;20194;-77
2023/07/09 03:34:14;;;;;;;0.00;0.00;;;;;;;18.16;nan;101075.94;4954093;28;20263;-77
2023/07/09 03:36:41;;;;;;;0.00;0.00;;;;;;;18.23;nan;101081.69;4954257;28;20182;-77
2023/07/09 03:39:07;;;;;;;0.00;0.00;;;;;;;18.18;nan;101092.97;4953444;28;20210;-77
2023/07/09 03:41:32;;;;;;;0.00;0.00;;;;;;;18.08;nan;101090.69;4951534;29;20191;-77
2023/07/09 03:43:58;;;;;;;0.37;0.37;;;;;;;18.14;nan;101098.41;4953037;28;20222;-77
2023/07/09 03:46:23;;;;;;;0.20;0.20;;;;;;;18.00;nan;101094.38;4953694;28;20217;-76
2023/07/09 03:48:50;;;;;;;0.30;0.30;;;;;;;17.81;nan;101089.44;4952306;28;20277;-77
2023/07/09 03:51:15;;;;;;;0.00;0.00;;;;;;;17.79;nan;101095.31;4953236;28;20190;-77
2023/07/09 03:53:41;;;;;;;0.00;0.00;;;;;;;17.40;nan;101087.59;4953666;28;20194;-75
2023/07/09 03:56:07;;;;;;;0.00;0.00;;;;;;;17.43;nan;101114.53;4953768;29;20245;-76
2023/07/09 03:58:33;;;;;;;0.00;0.00;;;;;;;17.76;nan;101133.84;4952765;29;20186;-79
2023/07/09 04:00:58;;;;;;;0.00;0.00;;;;;;;17.86;nan;101116.84;4953519;29;20187;-78
2023/07/09 04:03:24;;;;;;;0.00;0.00;;;;;;;17.98;nan;101125.16;4954180;28;20221;-77
2023/07/09 04:05:50;;;;;;;0.00;0.00;;;;;;;18.06;nan;101131.69;4948356;28;20601;-77
2023/07/09 04:08:15;;;;;;;0.00;0.00;;;;;;;17.66;nan;101137.06;4950769;29;20194;-77
2023/07/09 04:10:40;;;;;;;0.00;0.00;;;;;;;17.71;nan;101117.50;4954701;28;20209;-77
2023/07/09 04:13:06;;;;;;;0.00;0.00;;;;;;;18.02;nan;101130.78;4972260;28;20198;-78
2023/07/09 04:15:32;;;;;;;0.00;0.00;;;;;;;18.21;nan;101135.72;4957917;28;20193;-77
2023/07/09 04:17:57;;;;;;;0.00;0.00;;;;;;;18.38;nan;101136.31;4957225;28;20190;-77
2023/07/09 04:20:23;;;;;;;0.00;0.00;;;;;;;18.52;nan;101133.19;4952902;29;20395;-78
2023/07/09 04:22:48;;;;;;;0.00;0.00;;;;;;;18.56;nan;101128.56;4952304;29;20618;-77
2023/07/09 04:25:14;;;;;;;0.00;0.00;;;;;;;18.21;nan;101103.34;4953580;29;20211;-77
2023/07/09 04:27:40;;;;;;;0.00;0.00;;;;;;;18.13;nan;101118.13;4955470;28;20190;-77
2023/07/09 04:30:10;;;;;;;0.00;0.00;;;;;;;18.12;nan;101119.28;4956108;28;20198;-77
2023/07/09 04:32:36;;;;;;;0.00;0.00;;;;;;;18.35;nan;101122.34;4956636;28;20190;-78
2023/07/09 04:35:02;;;;;;;0.00;0.00;;;;;;;18.37;nan;101117.28;4956412;28;20206;-77
2023/07/09 04:37:27;;;;;;;0.00;0.00;;;;;;;18.50;nan;101118.06;4956589;28;20188;-78
2023/07/09 04:39:53;;;;;;;0.00;0.00;;;;;;;18.39;nan;101115.00;4955122;29;20197;-78
2023/07/09 04:42:18;;;;;;;0.00;0.00;;;;;;;18.41;nan;101137.59;4956798;28;20244;-77
2023/07/09 04:44:45;;;;;;;0.00;0.00;;;;;;;18.42;nan;101147.50;4955373;29;20222;-77
2023/07/09 04:47:11;;;;;;;0.00;0.00;;;;;;;18.44;nan;101148.75;4956236;28;20190;-77
2023/07/09 04:49:37;;;;;;;0.00;0.00;;;;;;;18.71;nan;101166.63;4953996;28;20185;-78
2023/07/09 04:52:03;;;;;;;0.00;0.00;;;;;;;18.91;nan;101166.81;4948743;29;20195;-78
2023/07/09 04:54:28;;;;;;;0.00;0.00;;;;;;;19.09;nan;101167.34;4965694;28;20202;-77
2023/07/09 04:56:56;;;;;;;0.00;0.00;;;;;;;19.16;nan;101162.81;4956443;28;20194;-77
2023/07/09 04:59:23;;;;;;;0.00;0.00;;;;;;;19.25;nan;101168.22;4955873;28;20198;-77
2023/07/09 05:01:49;;;;;;;0.00;0.00;;;;;;;19.28;nan;101170.28;4956941;28;20182;-77
2023/07/09 05:04:14;;;;;;;0.00;0.00;;;;;;;19.40;nan;101173.00;4957127;28;20697;-77
2023/07/09 05:06:39;;;;;;;0.00;0.00;;;;;;;19.24;nan;101177.66;4957118;28;20630;-77
2023/07/09 05:09:05;;;;;;;0.00;0.00;;;;;;;19.30;nan;101181.81;4963974;28;20193;-78
2023/07/09 05:11:34;;;;;;;0.00;0.00;;;;;;;19.26;nan;101165.09;4956296;28;20528;-78
2023/07/09 05:13:59;;;;;;;0.37;0.37;;;;;;;19.31;nan;101175.13;4955056;29;20288;-78
2023/07/09 05:16:24;;;;;;;0.00;0.00;;;;;;;19.35;nan;101178.78;4957030;28;20217;-77
2023/07/09 05:18:50;;;;;;;0.00;0.00;;;;;;;19.27;nan;101157.59;4957735;28;20191;-77
2023/07/09 05:21:15;;;;;;;0.83;0.83;;;;;;;19.38;nan;101160.63;4956348;28;20209;-77
2023/07/09 05:23:40;;;;;;;0.00;0.00;;;;;;;19.53;nan;101168.22;4955269;28;20743;-77
2023/07/09 05:26:05;;;;;;;0.00;0.00;;;;;;;19.71;nan;101169.53;4951298;29;20188;-78
2023/07/09 05:28:32;;;;;;;0.00;0.00;;;;;;;19.82;nan;101176.16;4955304;29;20616;-78
2023/07/09 05:30:58;;;;;;;0.00;0.00;;;;;;;19.88;nan;101162.84;4949990;29;20546;-77
2023/07/09 05:33:23;;;;;;;0.00;0.00;;;;;;;19.90;nan;101166.84;4966434;28;20689;-77
2023/07/09 05:35:49;;;;;;;0.00;0.00;;;;;;;20.02;nan;101188.16;4949417;29;20595;-77
2023/07/09 05:38:15;;;;;;;0.00;0.00;;;;;;;20.11;nan;101188.81;4944916;29;20192;-77
2023/07/09 05:40:42;;;;;;;0.00;0.00;;;;;;;20.12;nan;101179.31;4939236;29;20175;-77
2023/07/09 05:43:08;;;;;;;0.00;0.00;;;;;;;20.25;nan;101181.97;4939658;29;20205;-79
2023/07/09 05:45:33;;;;;;;0.00;0.00;;;;;;;20.34;nan;101171.50;4942899;29;20230;-76
2023/07/09 05:47:59;;;;;;;0.00;0.00;;;;;;;20.34;nan;101172.31;4937470;28;20698;-76
2023/07/09 05:50:26;;;;;;;0.00;0.00;;;;;;;20.38;nan;101169.59;4941804;29;20182;-76
2023/07/09 05:52:51;;;;;;;0.00;0.00;;;;;;;20.42;nan;101181.66;4951922;28;20195;-75
2023/07/09 05:55:17;;;;;;;0.00;0.00;;;;;;;20.52;nan;101169.97;4952231;28;20203;-75
2023/07/09 05:57:42;;;;;;;0.00;0.00;;;;;;;20.67;nan;101174.69;4946528;28;20240;-78
2023/07/09 06:00:08;;;;;;;0.00;0.00;;;;;;;20.76;nan;101180.84;4952663;29;20186;-78
2023/07/09 06:02:33;;;;;;;4.83;2.17;;;;;;;20.79;nan;101177.34;4952768;29;20186;-75
2023/07/09 06:04:59;;;;;;;0.00;0.00;;;;;;;20.88;nan;101185.50;4946353;28;20303;-79
2023/07/09 06:07:24;;;;;;;0.00;0.00;;;;;;;20.98;nan;101192.47;4937775;28;20194;-75
2023/07/09 06:09:49;;;;;;;0.00;0.00;;;;;;;21.01;nan;101177.84;4953767;28;20193;-75
2023/07/09 06:12:15;;;;;;;0.00;0.00;;;;;;;21.04;nan;101174.31;4950765;29;20693;-75
2023/07/09 06:14:40;;;;;;;0.00;0.00;;;;;;;21.11;nan;101182.78;4951026;29;20209;-75
2023/07/09 06:17:06;;;;;;;0.00;0.00;;;;;;;21.23;nan;101187.41;4965585;28;20245;-75
2023/07/09 06:19:31;;;;;;;0.00;0.00;;;;;;;21.24;nan;101175.13;4954697;28;20182;-76
2023/07/09 06:21:57;;;;;;;0.10;0.10;;;;;;;21.33;nan;101170.19;4955169;28;20647;-75
2023/07/09 06:24:23;;;;;;;0.30;0.30;;;;;;;21.37;nan;101185.75;4954717;28;20686;-76
2023/07/09 06:26:48;;;;;;;0.20;0.20;;;;;;;21.43;nan;101180.72;4954981;28;20184;-75
2023/07/09 06:29:13;;;;;;;0.40;0.40;;;;;;;21.48;nan;101179.59;4954704;28;20202;-76
2023/07/09 06:31:40;;;;;;;0.03;0.03;;;;;;;21.55;nan;101166.63;4955019;28;20297;-75
2023/07/09 06:34:07;;;;;;;0.47;0.40;;;;;;;21.65;nan;101188.28;4955109;28;20203;-76
2023/07/09 06:36:33;;;;;;;1.00;1.00;;;;;;;21.76;nan;101191.28;4953662;29;20184;-75
2023/07/09 06:38:58;;;;;;;0.00;0.00;;;;;;;21.87;nan;101189.50;4954554;28;20227;-75
2023/07/09 06:41:24;;;;;;;0.23;0.23;;;;;;;21.99;nan;101199.66;4954789;28;20687;-76
2023/07/09 06:43:49;;;;;;;0.10;0.10;;;;;;;21.96;nan;101184.47;4954868;28;20210;-75
2023/07/09 06:46:15;;;;;;;0.20;0.20;;;;;;;21.96;nan;101187.25;4950522;29;20197;-75
2023/07/09 06:48:40;;;;;;;0.00;0.00;;;;;;;22.03;nan;101185.78;4954933;28;20664;-76
2023/07/09 06:51:06;;;;;;;0.10;0.10;;;;;;;22.11;nan;101187.53;4954429;28;20185;-75
2023/07/09 06:53:32;;;;;;;0.20;0.20;;;;;;;22.22;nan;101194.09;4954841;28;20208;-76
2023/07/09 06:56:00;;;;;;;0.00;0.00;;;;;;;22.38;nan;101199.53;4955312;28;20220;-76
2023/07/09 06:58:27;;;;;;;0.30;0.30;;;;;;;22.48;nan;101190.53;4951709;29;20648;-76
2023/07/09 07:00:55;;;;;;;0.27;0.27;;;;;;;22.56;nan;101201.41;4954078;28;20183;-76
2023/07/09 07:03:21;;;;;;;0.20;0.20;;;;;;;22.66;nan;101199.16;4954814;28;20216;-76
2023/07/09 07:05:53;;;;;;;0.07;0.07;;;;;;;22.75;nan;101200.53;4954343;28;20178;-76
2023/07/09 07:08:20;;;;;;;0.20;0.20;;;;;;;22.87;nan;101201.50;4954638;28;20182;-76
2023/07/09 07:10:47;;;;;;;0.30;0.30;;;;;;;22.97;nan;101204.44;4953962;28;20661;-76
2023/07/09 07:13:13;;;;;;;0.00;0.00;;;;;;;23.10;nan;101222.53;4954306;28;20569;-76
2023/07/09 07:15:39;;;;;;;0.00;0.00;;;;;;;23.26;nan;101221.53;4954379;28;20253;-76
2023/07/09 07:18:06;;;;;;;0.00;0.00;;;;;;;23.32;nan;101220.03;4953201;28;20238;-76
2023/07/09 07:20:31;;;;;;;0.07;0.07;;;;;;;23.43;nan;101223.72;4954014;28;20191;-76
2023/07/09 07:22:57;;;;;;;0.00;0.00;;;;;;;23.54;nan;101219.09;4954274;28;20557;-76
2023/07/09 07:25:23;;;;;;;0.00;0.00;;;;;;;23.56;nan;101190.81;4952563;28;20585;-75
2023/07/09 07:27:48;;;;;;;0.20;0.20;;;;;;;23.76;nan;101209.00;4953035;29;20672;-76
2023/07/09 07:30:14;;;;;;;0.00;0.00;;;;;;;23.91;nan;101212.75;4953599;28;20281;-76
2023/07/09 07:32:45;;;;;;;0.10;0.10;;;;;;;24.01;nan;101212.03;4953816;28;20186;-76
2023/07/09 07:35:10;;;;;;;0.00;0.00;;;;;;;24.00;nan;101207.63;4952945;29;20189;-76
2023/07/09 07:37:35;;;;;;;0.07;0.07;;;;;;;24.15;nan;101216.94;4953959;28;20174;-76
2023/07/09 07:40:01;;;;;;;0.00;0.00;;;;;;;24.34;nan;101227.94;4952090;29;20191;-77
2023/07/09 07:42:26;;;;;;;0.00;0.00;;;;;;;24.39;nan;101218.41;4953656;28;20186;-76
2023/07/09 07:44:52;;;;;;;0.40;0.40;;;;;;;24.39;nan;101205.22;4953763;28;20206;-76
2023/07/09 07:47:17;;;;;;;0.10;0.10;;;;;;;24.52;nan;101208.53;4953619;28;20256;-76
2023/07/09 07:49:43;;;;;;;0.67;0.63;;;;;;;24.69;nan;101207.84;4953189;28;20190;-77
2023/07/09 07:52:08;;;;;;;0.10;0.10;;;;;;;24.73;nan;101197.47;4953633;28;20202;-76
2023/07/09 07:54:34;;;;;;;0.50;0.50;;;;;;;24.85;nan;101213.94;4953493;28;20199;-76
2023/07/09 07:56:59;;;;;;;1.13;1.13;;;;;;;24.83;nan;101213.53;4953452;28;20213;-77
2023/07/09 07:59:25;;;;;;;0.13;0.13;;;;;;;24.98;nan;101211.63;4952954;28;20182;-77
2023/07/09 08:01:50;;;;;;;0.93;0.43;;;;;;;25.07;nan;101209.31;4952075;29;20186;-76
2023/07/09 08:04:16;;;;;;;1.70;1.60;;;;;;;24.99;nan;101190.03;4953303;28;20241;-77
2023/07/09 08:06:41;;;;;;;0.43;0.40;;;;;;;25.11;nan;101198.94;4953187;29;20180;-77
2023/07/09 08:09:07;;;;;;;0.30;0.30;;;;;;;25.30;nan;101211.78;4952811;28;20265;-76
2023/07/09 08:11:32;;;;;;;0.10;0.10;;;;;;;25.40;nan;101297.78;4953047;28;20190;-76
2023/07/09 08:13:58;;;;;;;1.43;1.43;;;;;;;25.39;nan;101240.22;4953053;28;20202;-76
2023/07/09 08:16:23;;;;;;;0.13;0.13;;;;;;;25.42;nan;101230.22;4953147;28;20186;-76
2023/07/09 08:18:48;;;;;;;0.00;0.00;;;;;;;25.54;nan;101229.88;4953158;28;20221;-77
2023/07/09 08:21:13;;;;;;;0.80;0.80;;;;;;;25.59;nan;101284.66;4952897;28;20186;-76
2023/07/09 08:23:39;;;;;;;1.33;1.23;;;;;;;25.55;nan;101251.06;4952834;28;20688;-75
2023/07/09 08:26:04;;;;;;;0.23;0.23;;;;;;;25.68;nan;101232.75;4953014;28;20183;-77
2023/07/09 08:28:30;;;;;;;0.97;0.97;;;;;;;25.76;nan;101222.41;4967943;28;20178;-77
2023/07/09 08:30:56;;;;;;;0.10;0.10;;;;;;;25.78;nan;101214.41;4950557;28;20202;-76
2023/07/09 08:33:23;;;;;;;0.20;0.20;;;;;;;25.89;nan;101204.00;4947589;29;20202;-77
2023/07/09 08:35:50;;;;;;;0.53;0.53;;;;;;;26.09;nan;101216.44;4936154;28;20180;-77
2023/07/09 08:38:15;;;;;;;0.00;0.00;;;;;;;26.28;nan;101215.25;4936385;29;20569;-77
2023/07/09 08:40:41;;;;;;;1.47;1.27;;;;;;;26.46;nan;101220.06;4948297;29;20187;-76
2023/07/09 08:43:29;;;;;;;0.83;0.83;;;;;;;26.43;nan;101218.88;4961905;28;20230;-77
2023/07/09 08:46:06;;;;;;;0.00;0.00;;;;;;;26.50;nan;101221.69;4942750;29;20216;-77
2023/07/09 08:48:34;;;;;;;1.10;1.10;;;;;;;26.53;nan;101201.25;4950603;29;20617;-76
2023/07/09 08:51:09;;;;;;;0.57;0.57;;;;;;;26.59;nan;101196.81;4940015;28;20190;-77
2023/07/09 08:53:58;;;;;;;0.13;0.13;;;;;;;26.63;nan;101206.06;4943027;29;20244;-77
2023/07/09 08:56:25;;;;;;;0.00;0.00;;;;;;;26.78;nan;101209.63;4940010;28;20756;-77
2023/07/09 08:58:54;;;;;;;0.97;0.97;;;;;;;26.87;nan;101197.97;4951711;28;20708;-77
2023/07/09 09:01:46;;;;;;;0.47;0.47;;;;;;;27.07;nan;101212.41;4951675;29;20190;-77
2023/07/09 09:04:29;;;;;;;1.17;1.17;;;;;;;27.01;nan;101195.16;4945747;28;20643;-77
2023/07/09 09:07:13;;;;;;;2.20;2.00;;;;;;;27.08;nan;101199.97;4939042;29;20193;-76
2023/07/09 09:09:52;;;;;;;0.93;0.93;;;;;;;27.22;nan;101209.13;4951508;28;20182;-76
2023/07/09 09:12:33;;;;;;;0.43;0.43;;;;;;;27.28;nan;101209.50;4952150;29;20198;-77
2023/07/09 09:15:08;;;;;;;0.93;0.60;;;;;;;27.34;nan;101202.28;4952482;28;20197;-76
2023/07/09 09:17:34;;;;;;;0.73;0.73;;;;;;;27.30;nan;101192.25;4952501;28;20185;-77
2023/07/09 09:20:03;;;;;;;0.93;0.87;;;;;;;27.33;nan;101185.81;4950635;28;20182;-76
2023/07/09 09:22:37;;;;;;;0.20;0.20;;;;;;;27.59;nan;101199.31;4951085;29;20233;-76
2023/07/09 09:25:15;;;;;;;0.00;0.00;;;;;;;27.79;nan;101203.25;4952567;28;20318;-76
2023/07/09 09:27:41;;;;;;;0.20;0.20;;;;;;;27.88;nan;101196.34;4948525;29;20609;-77
2023/07/09 09:30:14;;;;;;;0.23;0.23;;;;;;;27.84;nan;101183.16;4947567;29;20214;-77
2023/07/09 09:32:53;;;;;;;0.00;0.00;;;;;;;27.92;nan;101181.09;4952238;28;20253;-76
2023/07/09 09:35:20;;;;;;;0.80;0.80;;;;;;;28.03;nan;101192.22;4952386;28;20179;-76
2023/07/09 09:37:54;;;;;;;0.20;0.20;;;;;;;27.96;nan;101175.44;4952547;28;20182;-75
2023/07/09 09:40:23;;;;;;;0.47;0.47;;;;;;;28.17;nan;101189.31;4952138;28;20211;-75
2023/07/09 09:42:53;;;;;;;0.50;0.50;;;;;;;28.22;nan;101196.53;4955285;28;20214;-77
2023/07/09 09:45:21;;;;;;;0.60;0.60;;;;;;;28.46;nan;101195.50;4954626;29;20217;-77
2023/07/09 09:47:47;;;;;;;1.27;1.17;;;;;;;28.61;nan;101198.97;4956047;28;20189;-77
2023/07/09 09:50:19;;;;;;;1.00;1.00;;;;;;;28.53;nan;101208.72;4954010;29;20182;-77
2023/07/09 09:52:46;;;;;;;0.50;0.50;;;;;;;28.62;nan;101204.19;4955878;28;20208;-75
2023/07/09 09:55:19;;;;;;;0.77;0.77;;;;;;;28.75;nan;101199.63;4955902;28;20174;-77
2023/07/09 09:57:49;;;;;;;0.07;0.07;;;;;;;28.80;nan;101206.03;4952503;28;20319;-76
2023/07/09 10:00:16;;;;;;;0.30;0.30;;;;;;;29.02;nan;101210.22;4948424;28;20242;-76
2023/07/09 10:02:42;;;;;;;0.17;0.17;;;;;;;29.03;nan;101178.84;4946019;29;20192;-76
2023/07/09 10:05:21;;;;;;;0.20;0.20;;;;;;;29.42;nan;101213.38;4954173;29;20208;-76
2023/07/09 10:08:02;;;;;;;0.43;0.43;;;;;;;29.32;nan;101195.38;4954260;29;20181;-76
2023/07/09 10:10:32;;;;;;;0.20;0.20;;;;;;;29.44;nan;101200.47;4953652;29;20668;-77
2023/07/09 10:13:16;;;;;;;0.00;0.00;;;;;;;29.38;nan;101229.53;4954220;29;20212;-77
2023/07/09 10:16:06;;;;;;;0.97;0.73;;;;;;;29.71;nan;101208.97;4956383;28;20552;-76
2023/07/09 10:18:37;;;;;;;0.53;0.53;;;;;;;29.62;nan;101178.50;4953184;29;20215;-77
2023/07/09 10:21:37;;;;;;;0.70;0.70;;;;;;;29.66;nan;101184.09;4955150;28;20585;-77
2023/07/09 10:24:12;;;;;;;0.60;0.60;;;;;;;29.66;nan;101180.47;4954859;29;20236;-77
2023/07/09 10:27:08;;;;;;;0.10;0.10;;;;;;;30.02;nan;101194.81;4955368;28;20185;-77
2023/07/09 10:29:56;;;;;;;0.20;0.20;;;;;;;29.92;nan;101172.00;4946603;29;20204;-76
2023/07/09 10:32:37;;;;;;;0.00;0.00;;;;;;;30.13;nan;101173.72;4954850;28;20188;-76
2023/07/09 10:35:36;;;;;;;0.00;0.00;;;;;;;30.11;nan;101167.72;4951716;28;20201;-77
2023/07/09 10:38:25;;;;;;;0.07;0.07;;;;;;;30.28;nan;101174.28;4950182;29;20182;-77
2023/07/09 10:40:55;;;;;;;1.00;1.00;;;;;;;30.57;nan;101182.22;4953238;29;20183;-77
2023/07/09 10:43:47;;;;;;;0.00;0.00;;;;;;;30.78;nan;101198.78;4954706;28;20199;-77
2023/07/09 10:46:20;;;;;;;0.00;0.00;;;;;;;30.89;nan;101182.44;4952513;29;20235;-77
2023/07/09 10:48:48;;;;;;;0.00;0.00;;;;;;;30.89;nan;101190.09;4954679;28;20238;-77
2023/07/09 10:51:28;;;;;;;0.27;0.27;;;;;;;30.73;nan;101199.28;4954409;28;20189;-77
2023/07/09 10:54:12;;;;;;;0.90;0.90;;;;;;;30.97;nan;101189.53;4954480;28;20210;-77
2023/07/09 10:56:39;;;;;;;0.73;0.73;;;;;;;30.96;nan;101192.78;4954643;28;20529;-77
2023/07/09 10:59:33;;;;;;;0.00;0.00;;;;;;;31.12;nan;101181.56;4954075;28;20241;-77
2023/07/09 11:02:21;;;;;;;0.00;0.00;;;;;;;31.19;nan;101198.38;4954559;28;20183;-77
2023/07/09 11:05:00;;;;;;;1.63;1.53;;;;;;;31.52;nan;101264.25;4954718;28;20214;-77
2023/07/09 11:07:58;;;;;;;0.60;0.60;;;;;;;31.67;nan;101244.97;4953294;29;20186;-76
2023/07/09 11:10:41;;;;;;;0.40;0.40;;;;;;;31.78;nan;101244.78;4954006;28;20658;-75
2023/07/09 11:13:16;;;;;;;0.53;0.53;;;;;;;31.86;nan;101343.13;4954451;28;20225;-77
2023/07/09 11:15:46;;;;;;;1.97;1.13;;;;;;;31.93;nan;101422.09;4952972;29;20178;-77
2023/07/09 11:18:18;;;;;;;1.70;1.27;;;;;;;31.76;nan;101394.22;4948853;28;20551;-76
2023/07/09 11:20:45;;;;;;;1.80;1.70;;;;;;;31.75;nan;101469.72;4943663;29;20522;-77
2023/07/09 11:23:24;;;;;;;0.63;0.40;;;;;;;31.80;nan;101429.63;4965285;28;20241;-77
2023/07/09 11:26:10;;;;;;;1.37;1.27;;;;;;;31.88;nan;101430.31;4947523;29;20203;-77
2023/07/09 11:28:39;;;;;;;0.00;0.00;;;;;;;32.10;nan;101408.03;4953908;28;20186;-77
2023/07/09 11:31:20;;;;;;;0.10;0.10;;;;;;;32.20;nan;101472.84;4948977;29;20200;-77
2023/07/09 11:34:01;;;;;;;0.37;0.37;;;;;;;31.82;nan;101384.78;4961613;28;20207;-77
2023/07/09 11:36:30;;;;;;;0.20;0.20;;;;;;;32.04;nan;101387.97;4953768;28;20203;-76
2023/07/09 11:38:55;;;;;;;0.17;0.17;;;;;;;32.24;nan;101393.56;4952241;29;20199;-77
2023/07/09 11:41:45;;;;;;;0.20;0.20;;;;;;;32.18;nan;101517.75;4954075;28;20188;-76
2023/07/09 11:44:19;;;;;;;0.40;0.40;;;;;;;32.39;nan;101394.88;4952657;29;20257;-77
2023/07/09 11:47:17;;;;;;;0.20;0.20;;;;;;;32.22;nan;101339.47;4953863;28;20187;-76
2023/07/09 11:49:59;;;;;;;0.00;0.00;;;;;;;32.33;nan;101323.09;4953329;28;20198;-76
2023/07/09 11:52:31;;;;;;;0.50;0.50;;;;;;;32.45;nan;101333.72;4952832;29;20199;-77